Terminal Aerodrome Forecast
Issued by NWS

Current Version | Previous Version | Text Only | Print | Product List | Glossary On
Versions: 1 2 3 4 5 6 7 8 9 10 11 12 13 14
000
FTUS42 TJSJ 011140
TAFKPK
TAF
TKPK 011140Z 0112/0212 06011KT P6SM VCSH SCT019
     FM011500 08013KT P6SM SCT025
     FM012300 07008KT P6SM FEW025=

USA.gov is the U.S. government's official web portal to all federal, state and local government web resources and services.